createdAt,value
2022-08-10T00:02:05.067Z,7.10
2022-08-10T00:05:09.264Z,2.53
2022-08-10T00:08:22.535Z,3.42
2022-08-10T00:11:31.277Z,5.07
2022-08-10T00:14:35.036Z,4.55
2022-08-10T00:17:39.214Z,2.95
2022-08-10T00:20:42.997Z,4.03
2022-08-10T00:23:47.590Z,11.38
2022-08-10T00:27:52.570Z,9.48
2022-08-10T00:30:16.788Z,11.45
2022-08-10T00:33:21.837Z,8.55
2022-08-10T00:36:25.747Z,9.77
2022-08-10T00:39:36.098Z,6.78
2022-08-10T00:42:42.198Z,7.07
2022-08-10T00:45:45.552Z,15.82
2022-08-10T00:49:04.318Z,10.07
2022-08-10T00:52:08.961Z,11.55
2022-08-10T00:55:13.769Z,8.02
2022-08-10T00:58:18.076Z,15.70
2022-08-10T01:02:09.665Z,16.90
2022-08-10T01:05:00.030Z,16.80
2022-08-10T01:08:48.154Z,18.25
2022-08-10T01:12:38.632Z,16.50
2022-08-10T01:16:02.426Z,17.73
2022-08-10T01:19:39.181Z,22.98
2022-08-10T01:23:22.091Z,17.50
2022-08-10T01:26:32.207Z,13.30
2022-08-10T01:29:42.456Z,12.43
2022-08-10T01:33:09.210Z,15.05
2022-08-10T01:36:16.028Z,9.38
2022-08-10T01:42:38.323Z,6.05
2022-08-10T01:45:46.325Z,14.43
2022-08-10T01:48:55.509Z,9.23
2022-08-10T01:52:00.920Z,10.25
2022-08-10T01:55:06.620Z,12.57
2022-08-10T01:58:12.346Z,11.27
2022-08-10T02:01:23.321Z,12.52
2022-08-10T02:04:29.547Z,15.75
2022-08-10T02:07:39.452Z,9.90
2022-08-10T02:10:46.510Z,8.75
2022-08-10T02:18:00.968Z,9.93
2022-08-10T02:20:50.342Z,10.43
2022-08-10T02:23:59.528Z,8.05
2022-08-10T02:27:10.674Z,8.27
2022-08-10T02:30:16.775Z,9.35
2022-08-10T02:36:53.499Z,9.82
2022-08-10T02:39:59.842Z,5.20
2022-08-10T02:46:59.981Z,6.15
2022-08-10T02:50:33.537Z,3.97
2022-08-10T02:53:56.922Z,9.82
2022-08-10T02:57:12.237Z,7.18
2022-08-10T03:00:20.547Z,4.55
2022-08-10T03:03:33.241Z,3.92
2022-08-10T03:06:48.393Z,2.78
2022-08-10T03:09:59.350Z,5.35
2022-08-10T03:13:26.509Z,4.03
2022-08-10T03:16:34.261Z,2.50
2022-08-10T03:20:34.132Z,10.82
2022-08-10T03:23:26.447Z,10.38
2022-08-10T03:26:38.924Z,7.30
2022-08-10T03:30:28.668Z,3.15
2022-08-10T03:33:19.432Z,4.88
2022-08-10T03:36:43.026Z,3.58
2022-08-10T03:39:57.837Z,2.03
2022-08-10T03:43:13.528Z,3.55
2022-08-10T03:46:25.264Z,8.93
2022-08-10T03:49:37.590Z,1.35
2022-08-10T03:52:55.166Z,2.72
2022-08-10T03:56:29.549Z,1.80
2022-08-10T03:59:39.606Z,4.07
2022-08-10T04:02:48.473Z,3.95
2022-08-10T04:06:04.052Z,0.93
2022-08-10T04:09:12.593Z,5.88
2022-08-10T04:12:21.134Z,3.20
2022-08-10T04:15:27.219Z,3.50
2022-08-10T04:18:40.962Z,1.50
2022-08-10T04:22:03.846Z,1.13
2022-08-10T04:25:27.827Z,2.60
2022-08-10T04:28:42.180Z,0.98
2022-08-10T04:32:09.352Z,2.13
2022-08-10T04:35:42.120Z,0.77
2022-08-10T04:38:54.848Z,2.33
2022-08-10T04:42:06.243Z,1.35
2022-08-10T04:45:50.193Z,3.05
2022-08-10T04:49:01.979Z,3.65
2022-08-10T04:52:38.967Z,3.95
2022-08-10T04:55:47.498Z,2.45
2022-08-10T04:59:04.421Z,0.85
2022-08-10T05:02:30.358Z,0.22
2022-08-10T05:05:43.456Z,1.73
2022-08-10T05:08:55.988Z,3.83
2022-08-10T05:12:06.550Z,2.50
2022-08-10T05:15:19.460Z,1.40
2022-08-10T05:18:28.195Z,2.10
2022-08-10T05:22:03.295Z,2.40
2022-08-10T05:25:13.001Z,0.52
2022-08-10T05:28:19.755Z,0.68
2022-08-10T05:31:35.757Z,1.15
2022-08-10T05:34:42.943Z,2.10
2022-08-10T05:38:11.947Z,3.30
2022-08-10T05:41:27.255Z,2.20
2022-08-10T05:44:45.132Z,0.65
2022-08-10T05:48:54.047Z,0.40
2022-08-10T05:51:16.837Z,2.47
2022-08-10T05:54:27.414Z,2.10
2022-08-10T05:57:33.885Z,1.30
2022-08-10T06:00:49.924Z,2.93
2022-08-10T06:04:00.348Z,1.30
2022-08-10T06:07:08.345Z,3.05
2022-08-10T06:10:28.571Z,1.55
2022-08-10T06:14:00.018Z,0.57
2022-08-10T06:17:20.307Z,2.03
2022-08-10T06:20:27.575Z,1.45
2022-08-10T06:23:38.772Z,1.95
2022-08-10T06:26:45.241Z,2.17
2022-08-10T06:33:01.773Z,7.78
2022-08-10T06:36:10.096Z,2.10
2022-08-10T06:39:33.140Z,2.33
2022-08-10T06:42:49.341Z,1.13
2022-08-10T06:46:08.516Z,0.30
2022-08-10T06:49:16.313Z,0.85
2022-08-10T06:52:25.162Z,2.08
2022-08-10T06:55:40.186Z,3.13
2022-08-10T06:59:02.662Z,5.77
2022-08-10T07:02:14.249Z,4.55
2022-08-10T07:05:24.928Z,0.77
2022-08-10T07:08:35.607Z,2.67
2022-08-10T07:11:42.987Z,3.28
2022-08-10T07:14:50.385Z,4.40
2022-08-10T07:17:59.629Z,0.28
2022-08-10T07:21:06.811Z,0.95
2022-08-10T07:24:19.024Z,0.50
2022-08-10T07:27:27.635Z,3.38
2022-08-10T07:30:47.430Z,1.70
2022-08-10T07:34:00.670Z,1.23
2022-08-10T07:37:09.998Z,0.60
2022-08-10T07:40:17.378Z,3.30
2022-08-10T07:43:27.024Z,1.27
2022-08-10T07:46:36.065Z,1.20
2022-08-10T07:49:44.578Z,1.65
2022-08-10T07:52:54.739Z,1.42
2022-08-10T07:56:16.577Z,1.48
2022-08-10T07:59:47.520Z,0.52
2022-08-10T08:03:02.487Z,5.45
2022-08-10T08:06:11.900Z,1.70
2022-08-10T08:09:22.210Z,4.85
2022-08-10T08:12:32.405Z,5.65
2022-08-10T08:16:17.188Z,3.35
2022-08-10T08:19:27.921Z,4.68
2022-08-10T08:24:10.888Z,2.70
2022-08-10T08:26:05.088Z,1.88
2022-08-10T08:29:15.464Z,1.95
2022-08-10T08:32:28.181Z,3.15
2022-08-10T08:35:36.716Z,2.65
2022-08-10T08:38:45.235Z,2.17
2022-08-10T08:41:59.278Z,2.80
2022-08-10T08:45:51.042Z,1.95
2022-08-10T08:50:04.722Z,2.85
2022-08-10T08:53:23.724Z,5.32
2022-08-10T08:57:06.949Z,6.60
2022-08-10T09:00:25.199Z,3.45
2022-08-10T09:03:57.988Z,5.47
2022-08-10T09:07:39.375Z,3.55
2022-08-10T09:11:02.144Z,4.03
2022-08-10T09:14:29.080Z,3.78
2022-08-10T09:17:51.631Z,4.97
2022-08-10T09:21:14.688Z,2.90
2022-08-10T09:24:34.581Z,5.18
2022-08-10T09:27:50.075Z,7.38
2022-08-10T09:31:22.066Z,6.15
2022-08-10T09:36:20.906Z,4.75
2022-08-10T09:38:38.671Z,5.28
2022-08-10T09:42:15.091Z,4.80
2022-08-10T09:45:38.618Z,8.82
2022-08-10T09:49:52.771Z,7.00
2022-08-10T09:53:06.828Z,4.50
2022-08-10T09:56:32.555Z,7.38
2022-08-10T10:00:00.153Z,8.85
2022-08-10T10:03:41.488Z,6.15
2022-08-10T10:07:00.265Z,7.63
2022-08-10T10:10:17.391Z,12.85
2022-08-10T10:14:02.505Z,4.43
2022-08-10T10:17:23.374Z,5.10
2022-08-10T10:20:51.243Z,3.53
2022-08-10T10:24:22.367Z,2.13
2022-08-10T10:27:39.312Z,2.55
2022-08-10T10:31:25.216Z,2.25
2022-08-10T10:34:44.180Z,6.05
2022-08-10T10:38:01.275Z,3.70
2022-08-10T10:42:03.462Z,4.50
2022-08-10T10:45:19.170Z,1.23
2022-08-10T10:48:29.071Z,1.00
2022-08-10T10:51:54.140Z,3.60
2022-08-10T10:55:23.848Z,7.70
2022-08-10T10:59:02.665Z,5.45
2022-08-10T11:02:43.032Z,3.95
2022-08-10T11:06:09.749Z,4.30
2022-08-10T11:10:04.505Z,5.38
2022-08-10T11:14:25.362Z,6.25
2022-08-10T11:17:08.619Z,3.15
2022-08-10T11:20:26.462Z,3.70
2022-08-10T11:24:49.103Z,7.72
2022-08-10T11:27:50.571Z,10.80
2022-08-10T11:31:17.632Z,12.30
2022-08-10T11:35:11.128Z,20.02
2022-08-10T11:42:09.402Z,19.70
2022-08-10T11:45:22.235Z,23.48
2022-08-10T11:48:53.492Z,25.55
2022-08-10T11:52:12.240Z,23.33
2022-08-10T11:55:24.873Z,25.02
2022-08-10T11:58:55.611Z,26.13
2022-08-10T12:02:01.933Z,17.70
2022-08-10T12:05:10.826Z,12.90
2022-08-10T12:10:06.566Z,19.23
2022-08-10T12:11:50.059Z,17.08
2022-08-10T12:15:16.381Z,13.25
2022-08-10T12:18:31.684Z,11.73
2022-08-10T12:22:07.239Z,7.05
2022-08-10T12:25:56.489Z,15.05
2022-08-10T12:29:43.731Z,12.90
2022-08-10T12:33:27.900Z,11.45
2022-08-10T12:36:44.583Z,12.98
2022-08-10T12:40:34.018Z,11.00
2022-08-10T12:44:06.250Z,15.15
2022-08-10T12:47:19.185Z,14.45
2022-08-10T12:50:59.141Z,14.73
2022-08-10T12:54:11.949Z,17.02
2022-08-10T12:57:19.955Z,6.78
2022-08-10T13:00:44.846Z,8.52
2022-08-10T13:04:22.573Z,16.33
2022-08-10T13:08:24.933Z,15.57
2022-08-10T13:11:18.489Z,23.75
2022-08-10T13:14:42.534Z,19.35
2022-08-10T13:17:53.194Z,14.88
2022-08-10T13:21:20.859Z,7.00
2022-08-10T13:24:29.916Z,10.52
2022-08-10T13:28:02.492Z,7.88
2022-08-10T13:31:16.802Z,8.00
2022-08-10T14:04:22.846Z,13.57
2022-08-10T14:11:31.897Z,17.77
2022-08-10T14:21:17.321Z,14.00
2022-08-10T14:28:03.180Z,19.73
2022-08-10T14:31:10.845Z,26.73
2022-08-10T15:25:57.630Z,17.17
2022-08-10T15:29:24.278Z,16.23
2022-08-10T15:32:58.871Z,8.98
2022-08-10T15:36:23.693Z,18.60
2022-08-10T15:40:22.368Z,12.73
2022-08-10T15:43:20.278Z,9.65
2022-08-10T15:46:45.771Z,12.23
2022-08-10T15:50:01.774Z,6.40
2022-08-10T15:53:49.138Z,6.60
2022-08-10T15:56:59.857Z,6.03
2022-08-10T16:00:08.694Z,7.50
2022-08-10T16:03:37.683Z,8.25
2022-08-10T16:06:47.893Z,6.07
2022-08-10T16:10:22.650Z,6.78
2022-08-10T16:13:50.474Z,7.10
2022-08-10T16:16:54.499Z,4.65
2022-08-10T16:20:00.269Z,3.95
2022-08-10T16:23:10.420Z,6.47
2022-08-10T16:26:17.705Z,9.45
2022-08-10T16:32:30.986Z,8.30
2022-08-10T16:35:35.900Z,7.22
2022-08-10T16:38:42.443Z,7.97
2022-08-10T16:42:05.117Z,6.43
2022-08-10T16:45:38.263Z,6.53
2022-08-10T16:48:49.861Z,8.38
2022-08-10T16:51:56.097Z,3.47
2022-08-10T16:55:16.945Z,4.93
2022-08-10T16:58:34.505Z,4.90
2022-08-10T17:01:40.265Z,4.07
2022-08-10T17:04:46.107Z,5.75
2022-08-10T17:07:51.637Z,3.53
2022-08-10T17:10:57.486Z,4.57
2022-08-10T17:14:02.843Z,6.25
2022-08-10T17:17:09.922Z,5.82
2022-08-10T17:20:32.066Z,6.82
2022-08-10T17:23:40.566Z,7.00
2022-08-10T17:26:45.117Z,3.80
2022-08-10T17:30:03.796Z,7.55
2022-08-10T17:33:16.288Z,3.13
2022-08-10T17:36:21.024Z,5.15
2022-08-10T17:39:32.184Z,3.88
2022-08-10T17:42:37.230Z,7.53
2022-08-10T17:45:46.366Z,5.70
2022-08-10T17:48:53.847Z,3.78
2022-08-10T17:51:59.093Z,3.72
2022-08-10T17:55:07.382Z,9.27
2022-08-10T17:58:20.676Z,8.68
2022-08-10T18:01:40.738Z,3.58
2022-08-10T18:04:58.124Z,5.63
2022-08-10T18:08:11.820Z,2.97
2022-08-10T18:11:18.078Z,6.30
2022-08-10T18:14:23.297Z,3.05
2022-08-10T18:17:38.481Z,7.53
2022-08-10T18:20:44.264Z,8.05
2022-08-10T18:23:52.697Z,11.38
2022-08-10T18:27:01.930Z,8.13
2022-08-10T18:30:08.847Z,6.70
2022-08-10T18:33:14.909Z,4.68
2022-08-10T18:36:19.880Z,4.07
2022-08-10T18:39:32.310Z,4.63
2022-08-10T18:42:42.644Z,4.95
2022-08-10T18:45:47.007Z,8.32
2022-08-10T18:48:57.932Z,3.97
2022-08-10T18:52:08.269Z,5.63
2022-08-10T18:55:23.254Z,7.75
2022-08-10T18:58:45.381Z,6.90
2022-08-10T19:02:22.427Z,7.40
2022-08-10T19:05:51.278Z,6.65
2022-08-10T19:09:47.703Z,9.35
2022-08-10T19:12:52.714Z,3.25
2022-08-10T19:16:12.914Z,4.07
2022-08-10T19:19:43.472Z,9.10
2022-08-10T19:22:54.925Z,6.88
2022-08-10T19:26:32.891Z,6.07
2022-08-10T19:30:11.236Z,4.90
2022-08-10T19:33:33.094Z,4.40
2022-08-10T19:36:55.606Z,6.07
2022-08-10T19:40:44.307Z,5.88
2022-08-10T19:44:18.801Z,5.25
2022-08-10T19:47:58.797Z,5.75
2022-08-10T19:51:13.926Z,6.82
2022-08-10T19:54:27.724Z,7.70
2022-08-10T19:57:59.479Z,9.57
2022-08-10T20:01:08.607Z,6.10
2022-08-10T20:04:29.542Z,6.63
2022-08-10T20:07:58.825Z,11.15
2022-08-10T20:11:44.016Z,7.45
2022-08-10T20:15:05.622Z,7.15
2022-08-10T20:18:15.077Z,8.65
2022-08-10T20:21:29.021Z,5.35
2022-08-10T20:24:54.458Z,12.98
2022-08-10T20:28:20.995Z,6.20
2022-08-10T20:34:43.429Z,5.00
2022-08-10T20:38:04.436Z,8.55
2022-08-10T20:41:46.309Z,5.10
2022-08-10T20:45:12.471Z,4.28
2022-08-10T20:48:39.202Z,11.07
2022-08-10T20:52:05.134Z,7.32
2022-08-10T20:55:10.989Z,8.55
2022-08-10T20:58:33.144Z,7.03
2022-08-10T21:02:11.777Z,9.10
2022-08-10T21:05:42.608Z,9.02
2022-08-10T21:09:03.889Z,6.40
2022-08-10T21:12:58.109Z,5.30
2022-08-10T21:16:05.089Z,5.22
2022-08-10T21:19:55.642Z,6.18
2022-08-10T21:26:53.287Z,6.95
2022-08-10T21:30:17.498Z,5.72
2022-08-10T21:34:04.716Z,5.90
2022-08-10T21:37:23.968Z,5.82
2022-08-10T21:41:18.892Z,6.20
2022-08-10T21:44:40.509Z,4.80
2022-08-10T21:48:17.695Z,4.28
2022-08-10T21:52:06.759Z,5.43
2022-08-10T21:55:57.165Z,5.32
2022-08-10T21:59:17.382Z,9.25
2022-08-10T22:02:52.220Z,9.15
2022-08-10T22:06:16.367Z,11.63
2022-08-10T22:09:47.782Z,5.78
2022-08-10T22:13:13.558Z,5.80
2022-08-10T22:17:07.647Z,5.32
2022-08-10T22:20:54.482Z,6.70
2022-08-10T22:24:44.098Z,4.78
2022-08-10T22:28:17.659Z,5.85
2022-08-10T22:31:27.736Z,6.85
2022-08-10T22:32:03.136Z,7.18
2022-08-10T22:35:54.497Z,9.98
2022-08-10T22:40:12.675Z,6.03
2022-08-10T22:43:36.288Z,7.80
2022-08-10T22:47:01.649Z,9.00
2022-08-10T22:50:07.792Z,10.20
2022-08-10T22:53:20.800Z,8.23
2022-08-10T22:56:43.555Z,7.78
2022-08-10T22:59:48.883Z,6.60
2022-08-10T23:02:55.671Z,7.30
2022-08-10T23:06:06.788Z,8.48
2022-08-10T23:09:13.543Z,5.88
2022-08-10T23:15:58.588Z,7.90
2022-08-10T23:19:11.617Z,9.65
2022-08-10T23:22:18.593Z,3.45
2022-08-10T23:25:30.153Z,6.05
2022-08-10T23:28:58.137Z,9.85
2022-08-10T23:32:07.566Z,7.32
2022-08-10T23:36:31.366Z,7.03
2022-08-10T23:38:43.565Z,5.25
2022-08-10T23:42:07.557Z,5.55
2022-08-10T23:45:17.312Z,7.72
2022-08-10T23:48:25.745Z,8.02
2022-08-10T23:51:54.674Z,8.02
2022-08-10T23:55:08.744Z,8.05
2022-08-10T23:58:29.165Z,9.00
